Time;durP1;ratioP1;P1;durP2;ratioP2;P2;SDS_P1;SDS_P2;PMS_P1;PMS_P2;Temp;Humidity;BMP_temperature;BMP_pressure;BME280_temperature;BME280_humidity;BME280_pressure;Samples;Min_cycle;Max_cycle;Signal;HPM_P1;HPM_P2
2024/04/22 00:01:20;;;;;;;10.10;4.00;;;4.10;99.90;;;;;;5343925;26;20551;-71
2024/04/22 00:03:50;;;;;;;10.33;4.60;;;4.10;99.90;;;;;;5340486;26;20596;-70
2024/04/22 00:06:17;;;;;;;9.60;4.20;;;4.10;99.90;;;;;;5339717;26;20484;-70
2024/04/22 00:08:47;;;;;;;11.00;4.27;;;4.20;99.90;;;;;;5343228;26;20468;-70
2024/04/22 00:11:14;;;;;;;10.43;4.70;;;4.20;99.90;;;;;;5339179;26;20479;-71
2024/04/22 00:13:43;;;;;;;8.43;3.60;;;4.20;99.90;;;;;;5339032;26;20564;-70
2024/04/22 00:16:10;;;;;;;10.83;4.23;;;4.20;99.90;;;;;;5339698;26;20471;-70
2024/04/22 00:18:43;;;;;;;10.47;4.00;;;4.20;99.90;;;;;;5338915;26;20464;-70
2024/04/22 00:21:10;;;;;;;9.33;4.03;;;4.20;99.90;;;;;;5339083;26;20472;-71
2024/04/22 00:23:39;;;;;;;10.53;4.23;;;4.10;99.90;;;;;;5345042;26;20472;-70
2024/04/22 00:26:06;;;;;;;10.53;4.73;;;4.10;99.90;;;;;;5339814;26;20589;-70
2024/04/22 00:28:36;;;;;;;10.03;4.20;;;4.10;99.90;;;;;;5351440;26;20463;-70
2024/04/22 00:31:04;;;;;;;11.07;4.13;;;4.10;99.90;;;;;;5339410;26;20468;-70
2024/04/22 00:33:34;;;;;;;9.47;4.03;;;4.20;99.90;;;;;;5339883;26;20596;-69
2024/04/22 00:36:04;;;;;;;9.83;3.97;;;4.20;99.90;;;;;;5339906;26;20467;-70
2024/04/22 00:38:34;;;;;;;10.77;5.13;;;4.20;99.90;;;;;;5335901;26;20476;-70
2024/04/22 00:41:01;;;;;;;9.60;3.73;;;4.20;99.90;;;;;;5339927;26;21495;-70
2024/04/22 00:43:31;;;;;;;10.10;4.00;;;4.20;99.90;;;;;;5339980;26;20525;-69
2024/04/22 00:45:58;;;;;;;12.63;3.90;;;4.20;99.90;;;;;;5332643;26;20539;-70
2024/04/22 00:48:28;;;;;;;10.80;4.10;;;4.20;99.90;;;;;;5341793;26;20776;-71
2024/04/22 00:50:57;;;;;;;9.50;3.77;;;4.20;99.90;;;;;;5340213;26;20528;-70
2024/04/22 00:53:29;;;;;;;9.50;4.40;;;4.20;99.90;;;;;;5343333;26;20566;-70
2024/04/22 00:55:57;;;;;;;9.90;3.93;;;4.10;99.90;;;;;;5340266;26;20472;-69
2024/04/22 00:58:28;;;;;;;10.40;4.03;;;4.10;99.90;;;;;;5338665;26;20524;-70
2024/04/22 01:00:56;;;;;;;9.20;3.50;;;4.10;99.90;;;;;;5339661;26;20487;-71
2024/04/22 01:03:26;;;;;;;9.60;4.00;;;4.10;99.90;;;;;;5350896;26;20479;-69
2024/04/22 01:05:57;;;;;;;10.87;4.20;;;4.10;99.90;;;;;;5340903;26;21019;-70
2024/04/22 01:08:27;;;;;;;9.30;3.93;;;4.10;99.90;;;;;;5340809;26;20527;-71
2024/04/22 01:10:57;;;;;;;10.47;4.50;;;4.10;99.90;;;;;;5345952;26;20471;-70
2024/04/22 01:13:24;;;;;;;9.90;3.77;;;4.10;99.90;;;;;;5337893;26;20517;-70
2024/04/22 01:15:54;;;;;;;10.23;4.40;;;4.10;99.90;;;;;;5339048;26;20839;-70
2024/04/22 01:18:21;;;;;;;10.47;4.07;;;4.10;99.90;;;;;;5337501;26;20528;-71
2024/04/22 01:20:51;;;;;;;10.80;4.07;;;4.00;99.90;;;;;;5337680;26;21103;-70
2024/04/22 01:23:21;;;;;;;11.00;4.17;;;4.10;99.90;;;;;;5337964;26;20534;-70
2024/04/22 01:25:56;;;;;;;9.10;3.63;;;4.00;99.90;;;;;;5340703;26;20506;-71
2024/04/22 01:28:23;;;;;;;9.40;4.13;;;4.10;99.90;;;;;;5341352;26;20876;-70
2024/04/22 01:30:52;;;;;;;10.67;4.07;;;4.10;99.90;;;;;;5342121;26;20479;-71
2024/04/22 01:33:19;;;;;;;8.93;3.60;;;4.10;99.90;;;;;;5341567;26;20516;-70
2024/04/22 01:35:49;;;;;;;8.70;3.40;;;4.10;99.90;;;;;;5341122;26;20522;-70
2024/04/22 01:38:16;;;;;;;9.10;4.20;;;4.10;99.90;;;;;;5340964;26;20905;-70
2024/04/22 01:40:49;;;;;;;9.80;3.97;;;4.10;99.90;;;;;;5341743;26;21027;-70
2024/04/22 01:43:16;;;;;;;8.73;3.93;;;4.10;99.90;;;;;;5341627;26;20472;-70
2024/04/22 01:45:45;;;;;;;10.50;3.77;;;4.10;99.90;;;;;;5341983;26;20805;-70
2024/04/22 01:48:13;;;;;;;11.07;4.30;;;4.10;99.90;;;;;;5340976;26;20798;-72
2024/04/22 01:50:42;;;;;;;9.30;4.10;;;4.20;99.90;;;;;;5335026;26;20461;-71
2024/04/22 01:53:09;;;;;;;11.20;3.87;;;4.10;99.90;;;;;;5326734;26;20479;-71
2024/04/22 01:55:39;;;;;;;11.53;3.97;;;4.10;99.90;;;;;;5341255;26;20472;-71
2024/04/22 01:58:09;;;;;;;9.80;4.57;;;4.10;99.90;;;;;;5331345;26;20572;-69
2024/04/22 02:00:39;;;;;;;8.23;3.60;;;4.00;99.90;;;;;;5337360;26;21066;-71
2024/04/22 02:03:06;;;;;;;9.83;4.23;;;4.00;99.90;;;;;;5340685;26;20472;-70
2024/04/22 02:05:36;;;;;;;9.90;3.97;;;4.00;99.90;;;;;;5341000;26;20804;-70
2024/04/22 02:08:04;;;;;;;9.50;3.93;;;3.90;99.90;;;;;;5340833;26;20463;-70
2024/04/22 02:10:33;;;;;;;9.40;4.00;;;3.90;99.90;;;;;;5340968;26;20464;-70
2024/04/22 02:13:01;;;;;;;11.17;4.33;;;3.80;99.90;;;;;;5341598;26;20480;-69
2024/04/22 02:15:33;;;;;;;9.97;4.40;;;3.90;99.90;;;;;;5341214;26;20471;-71
2024/04/22 02:18:00;;;;;;;9.73;4.27;;;3.80;99.90;;;;;;5341328;26;20902;-70
2024/04/22 02:20:30;;;;;;;10.70;4.00;;;3.80;99.90;;;;;;5341248;26;20468;-70
2024/04/22 02:22:57;;;;;;;11.83;4.10;;;3.80;99.90;;;;;;5342358;26;20472;-71
2024/04/22 02:25:27;;;;;;;10.17;4.60;;;3.80;99.90;;;;;;5342172;26;20467;-72
2024/04/22 02:27:54;;;;;;;10.07;3.90;;;3.80;99.90;;;;;;5341277;26;20928;-72
2024/04/22 02:30:23;;;;;;;12.30;4.10;;;3.80;99.90;;;;;;5340220;26;20478;-70
2024/04/22 02:32:53;;;;;;;11.57;4.93;;;3.80;99.90;;;;;;5329430;26;20544;-69
2024/04/22 02:35:23;;;;;;;9.27;3.90;;;3.70;99.90;;;;;;5340218;26;20472;-71
2024/04/22 02:37:50;;;;;;;9.60;3.60;;;3.70;99.90;;;;;;5340903;26;20537;-71
2024/04/22 02:40:20;;;;;;;9.10;3.97;;;3.70;99.90;;;;;;5340076;26;20809;-69
2024/04/22 02:42:47;;;;;;;10.87;4.80;;;3.70;99.90;;;;;;5340808;26;20483;-70
2024/04/22 02:45:17;;;;;;;10.73;4.30;;;3.70;99.90;;;;;;5340766;26;20479;-70
2024/04/22 02:47:44;;;;;;;9.60;3.97;;;3.70;99.90;;;;;;5327663;26;20471;-70
2024/04/22 02:50:17;;;;;;;10.03;4.67;;;3.80;99.90;;;;;;5339827;26;20574;-70
2024/04/22 02:52:44;;;;;;;11.70;4.17;;;3.70;99.90;;;;;;5340759;26;20515;-70
2024/04/22 02:55:14;;;;;;;9.50;3.87;;;3.70;99.90;;;;;;5340677;26;20479;-71
2024/04/22 02:57:41;;;;;;;11.30;3.47;;;3.70;99.90;;;;;;5326560;26;20483;-71
2024/04/22 03:00:12;;;;;;;9.60;3.97;;;3.70;99.90;;;;;;5340125;26;20540;-71
2024/04/22 03:02:39;;;;;;;9.50;4.17;;;3.70;99.90;;;;;;5341251;26;20461;-71
2024/04/22 03:05:09;;;;;;;9.33;3.93;;;3.70;99.90;;;;;;5332901;26;21126;-71
2024/04/22 03:07:38;;;;;;;11.70;4.17;;;3.70;99.90;;;;;;5341053;26;20530;-70
2024/04/22 03:10:09;;;;;;;9.70;4.03;;;3.60;99.90;;;;;;5339365;26;20563;-69
2024/04/22 03:12:36;;;;;;;11.50;4.33;;;3.50;99.90;;;;;;5340681;26;20582;-70
2024/04/22 03:15:07;;;;;;;10.57;4.90;;;3.50;99.90;;;;;;5340687;26;20464;-73
2024/04/22 03:17:34;;;;;;;9.87;4.13;;;3.40;99.90;;;;;;5340381;26;20467;-70
2024/04/22 03:20:05;;;;;;;8.90;3.60;;;3.40;99.90;;;;;;5339648;26;20483;-71
2024/04/22 03:22:32;;;;;;;10.13;4.10;;;3.40;99.90;;;;;;5340126;26;21027;-71
2024/04/22 03:25:05;;;;;;;10.40;4.50;;;3.40;99.90;;;;;;5340332;26;20487;-70
2024/04/22 03:27:32;;;;;;;10.93;4.40;;;3.40;99.90;;;;;;5339969;26;21000;-70
2024/04/22 03:30:03;;;;;;;10.77;4.60;;;3.40;99.90;;;;;;5339460;26;20544;-71
2024/04/22 03:32:30;;;;;;;11.97;4.23;;;3.40;99.90;;;;;;5340492;26;20462;-70
2024/04/22 03:35:00;;;;;;;13.97;4.70;;;3.40;99.90;;;;;;5339772;26;20591;-70
2024/04/22 03:37:29;;;;;;;10.80;4.30;;;3.30;99.90;;;;;;5339500;26;20528;-70
2024/04/22 03:39:59;;;;;;;9.13;3.93;;;3.30;99.90;;;;;;5338781;26;20555;-71
2024/04/22 03:42:31;;;;;;;11.20;4.47;;;3.30;99.90;;;;;;5339516;26;20471;-71
2024/04/22 03:45:01;;;;;;;12.13;4.77;;;3.30;99.90;;;;;;5339890;26;20463;-70
2024/04/22 03:50:16;;;;;;;12.57;4.23;;;3.00;99.90;;;;;;5339008;26;20464;-70
2024/04/22 03:52:46;;;;;;;10.60;5.43;;;2.90;99.90;;;;;;5339847;26;21075;-70
2024/04/22 03:55:16;;;;;;;11.13;4.97;;;2.80;99.90;;;;;;5337198;26;20524;-70
2024/04/22 03:57:48;;;;;;;11.70;5.00;;;2.70;99.90;;;;;;5339499;26;20478;-70
2024/04/22 04:00:19;;;;;;;12.07;4.60;;;2.60;99.90;;;;;;5332599;26;20518;-70
2024/04/22 04:02:47;;;;;;;11.40;4.30;;;2.50;99.90;;;;;;5339061;26;20584;-71
2024/04/22 04:05:16;;;;;;;10.20;4.03;;;2.40;99.90;;;;;;5333014;26;20523;-70
2024/04/22 04:07:48;;;;;;;10.50;5.17;;;2.30;99.90;;;;;;5324065;26;20477;-70
2024/04/22 04:10:18;;;;;;;11.13;4.50;;;2.20;99.90;;;;;;5338648;26;20552;-70
2024/04/22 04:12:47;;;;;;;10.77;4.60;;;2.20;99.90;;;;;;5339390;26;20493;-70
2024/04/22 04:15:18;;;;;;;10.30;4.80;;;2.10;99.90;;;;;;5338297;26;20271;-67
2024/04/22 04:17:45;;;;;;;10.63;4.68;;;2.10;99.90;;;;;;5325495;26;20274;-69
2024/04/22 04:20:15;;;;;;;10.77;4.60;;;2.00;99.90;;;;;;5338884;26;20237;-69
2024/04/22 04:22:42;;;;;;;11.60;5.28;;;2.00;99.90;;;;;;5338996;26;20269;-71
2024/04/22 04:25:11;;;;;;;14.55;6.13;;;2.00;99.90;;;;;;5323644;26;20276;-70
2024/04/22 04:27:38;;;;;;;13.70;4.55;;;1.90;99.90;;;;;;5338230;26;20235;-71
2024/04/22 04:30:12;;;;;;;10.43;4.65;;;1.90;99.90;;;;;;5338199;26;20241;-70
2024/04/22 04:32:39;;;;;;;10.70;4.85;;;1.90;99.90;;;;;;5331158;26;20766;-72
2024/04/22 04:35:09;;;;;;;10.30;4.72;;;1.90;99.90;;;;;;5339275;26;21199;-70
2024/04/22 04:37:36;;;;;;;12.40;5.05;;;2.00;99.90;;;;;;5339019;26;20281;-70
2024/04/22 04:40:06;;;;;;;9.73;4.30;;;2.00;99.90;;;;;;5337834;26;20665;-71
2024/04/22 04:42:33;;;;;;;8.90;4.10;;;2.00;99.90;;;;;;5337946;26;20235;-70
2024/04/22 04:45:03;;;;;;;11.25;4.10;;;2.00;99.90;;;;;;5338761;26;20273;-71
2024/04/22 04:47:33;;;;;;;9.40;3.75;;;1.90;99.90;;;;;;5339298;26;20274;-70
2024/04/22 04:50:03;;;;;;;11.13;4.63;;;1.90;99.90;;;;;;5339294;26;20238;-70
2024/04/22 04:52:30;;;;;;;12.43;5.32;;;1.90;99.90;;;;;;5338328;26;20877;-68
2024/04/22 04:54:59;;;;;;;12.45;5.10;;;1.90;99.90;;;;;;5339393;26;20364;-68
2024/04/22 04:57:27;;;;;;;10.55;4.95;;;1.90;99.90;;;;;;5339034;26;20718;-69
2024/04/22 04:59:56;;;;;;;11.70;4.32;;;1.90;99.90;;;;;;5340465;26;20308;-70
2024/04/22 05:02:23;;;;;;;10.18;4.30;;;1.90;99.90;;;;;;5342520;26;20268;-72
2024/04/22 05:04:56;;;;;;;11.02;4.60;;;1.90;99.90;;;;;;5342135;26;20295;-71
2024/04/22 05:07:23;;;;;;;11.23;4.65;;;2.00;99.90;;;;;;5342619;26;20341;-72
2024/04/22 05:09:53;;;;;;;11.32;4.72;;;2.00;99.90;;;;;;5341361;26;20740;-71
2024/04/22 05:12:20;;;;;;;13.80;6.10;;;2.00;99.90;;;;;;5342308;26;20239;-72
2024/04/22 05:14:50;;;;;;;12.35;4.75;;;2.00;99.90;;;;;;5342467;26;20278;-74
2024/04/22 05:17:17;;;;;;;12.50;5.17;;;2.10;99.90;;;;;;5341813;26;20366;-72
2024/04/22 05:19:47;;;;;;;12.82;4.53;;;2.10;99.90;;;;;;5340890;26;20464;-72
2024/04/22 05:22:16;;;;;;;10.57;4.70;;;2.20;99.90;;;;;;5334706;26;20244;-71
2024/04/22 05:24:46;;;;;;;12.60;4.60;;;2.30;99.90;;;;;;5340997;26;20466;-71
2024/04/22 05:27:13;;;;;;;9.83;4.40;;;2.30;99.90;;;;;;5341971;26;21036;-71
2024/04/22 05:29:43;;;;;;;10.97;5.10;;;2.40;99.90;;;;;;5340689;26;20462;-71
2024/04/22 05:32:10;;;;;;;10.20;4.10;;;2.50;99.90;;;;;;5342254;26;20474;-70
2024/04/22 05:37:28;;;;;;;11.00;4.60;;;2.70;99.90;;;;;;5337889;26;20933;-71
2024/04/22 05:39:58;;;;;;;10.35;3.60;;;2.70;99.90;;;;;;5341886;26;20490;-71
2024/04/22 05:42:28;;;;;;;9.93;5.30;;;2.80;99.90;;;;;;5342446;26;20568;-70
2024/04/22 05:44:58;;;;;;;10.80;3.73;;;2.80;99.90;;;;;;5330115;26;20473;-71
2024/04/22 05:47:27;;;;;;;9.13;3.73;;;3.00;99.90;;;;;;5341603;26;20471;-71
2024/04/22 05:49:54;;;;;;;13.83;4.80;;;3.00;99.90;;;;;;5330539;26;20544;-71
2024/04/22 05:52:24;;;;;;;10.50;4.70;;;3.00;99.90;;;;;;5337913;26;20466;-70
2024/04/22 05:54:54;;;;;;;10.50;3.50;;;3.20;99.90;;;;;;5339653;26;20539;-72
2024/04/22 05:57:24;;;;;;;9.80;3.73;;;3.20;99.90;;;;;;5357708;26;20571;-71
2024/04/22 05:59:51;;;;;;;9.30;3.87;;;3.30;99.90;;;;;;5359550;26;20480;-71
2024/04/22 06:02:21;;;;;;;9.67;3.80;;;3.30;99.90;;;;;;5348140;26;20463;-70
2024/04/22 06:04:48;;;;;;;8.87;3.67;;;3.30;99.90;;;;;;5356264;26;20517;-70
2024/04/22 06:07:17;;;;;;;10.73;3.77;;;3.30;99.90;;;;;;5348280;26;20456;-70
2024/04/22 06:09:45;;;;;;;12.57;3.73;;;3.20;99.90;;;;;;5351938;26;20502;-71
2024/04/22 06:12:17;;;;;;;9.80;3.73;;;3.10;99.90;;;;;;5343822;26;20586;-70
2024/04/22 06:14:46;;;;;;;9.50;3.27;;;3.10;99.90;;;;;;5327392;26;20525;-71
2024/04/22 06:17:16;;;;;;;12.38;3.70;;;3.00;99.90;;;;;;5341330;26;20526;-70
2024/04/22 06:19:43;;;;;;;13.13;4.17;;;3.10;99.90;;;;;;5340314;26;20274;-70
2024/04/22 06:22:13;;;;;;;8.73;3.50;;;3.10;99.90;;;;;;5341105;26;21082;-70
2024/04/22 06:24:40;;;;;;;9.30;4.27;;;3.10;99.90;;;;;;5341426;26;20866;-70
2024/04/22 06:27:10;;;;;;;9.03;3.60;;;3.10;99.90;;;;;;5338514;26;20528;-71
2024/04/22 06:29:39;;;;;;;10.67;4.07;;;3.20;99.90;;;;;;5353892;26;20471;-69
2024/04/22 06:32:09;;;;;;;9.00;3.30;;;3.30;99.90;;;;;;5352004;26;20457;-68
2024/04/22 06:34:36;;;;;;;90.67;17.87;;;3.30;99.90;;;;;;5352219;26;20561;-70
2024/04/22 06:37:06;;;;;;;12.63;3.70;;;3.30;99.90;;;;;;5339577;26;20477;-69
2024/04/22 06:39:34;;;;;;;8.53;3.50;;;3.40;99.90;;;;;;5341017;26;20520;-69
2024/04/22 06:42:03;;;;;;;8.57;3.33;;;3.40;99.90;;;;;;5341804;26;20563;-69
2024/04/22 06:44:30;;;;;;;8.93;3.30;;;3.60;99.90;;;;;;5342026;26;20526;-69
2024/04/22 06:47:03;;;;;;;9.10;3.30;;;3.80;99.90;;;;;;5349368;26;21021;-69
2024/04/22 06:49:30;;;;;;;11.27;3.70;;;3.90;99.90;;;;;;5352183;26;20462;-69
2024/04/22 06:52:00;;;;;;;10.07;4.00;;;4.00;99.90;;;;;;5343865;26;21141;-71
2024/04/22 06:54:27;;;;;;;10.87;4.50;;;4.30;99.90;;;;;;5361619;26;20483;-70
2024/04/22 06:56:57;;;;;;;9.03;3.50;;;4.50;99.90;;;;;;5353328;26;20544;-70
2024/04/22 06:59:24;;;;;;;8.73;3.20;;;4.80;99.90;;;;;;5359071;26;20531;-71
2024/04/22 07:01:54;;;;;;;10.20;3.07;;;5.00;99.90;;;;;;5362638;26;20526;-69
2024/04/22 07:04:24;;;;;;;9.20;3.47;;;4.90;99.90;;;;;;5361146;26;20554;-69
2024/04/22 07:06:54;;;;;;;8.90;3.57;;;4.80;99.90;;;;;;5362624;26;20521;-70
2024/04/22 07:09:21;;;;;;;10.80;3.73;;;4.60;99.90;;;;;;5360031;26;20528;-69
2024/04/22 07:11:50;;;;;;;17.03;4.37;;;4.70;99.90;;;;;;5361201;26;20865;-71
2024/04/22 07:14:19;;;;;;;15.03;4.03;;;4.70;99.90;;;;;;5360230;26;20523;-70
2024/04/22 07:16:56;;;;;;;12.10;5.00;;;4.70;99.90;;;;;;5362372;26;20555;-70
2024/04/22 07:19:26;;;;;;;10.77;3.20;;;4.70;99.90;;;;;;5359045;26;20958;-70
2024/04/22 07:21:57;;;;;;;8.33;3.07;;;4.60;99.90;;;;;;5354459;26;21136;-69
2024/04/22 07:24:25;;;;;;;8.93;3.80;;;4.60;99.90;;;;;;5356640;26;20468;-69
2024/04/22 07:26:57;;;;;;;8.40;3.00;;;4.70;99.90;;;;;;5347357;26;20524;-71
2024/04/22 07:29:24;;;;;;;8.77;2.93;;;4.80;99.90;;;;;;5347956;26;20474;-70
2024/04/22 07:31:54;;;;;;;10.03;3.20;;;4.80;99.90;;;;;;5358602;26;21107;-69
2024/04/22 07:34:22;;;;;;;8.67;3.37;;;4.90;99.90;;;;;;5348161;26;20483;-69
2024/04/22 07:37:03;;;;;;;10.90;2.97;;;5.00;99.90;;;;;;5348855;26;20475;-69
2024/04/22 07:39:34;;;;;;;11.47;3.10;;;5.30;99.90;;;;;;5345894;26;20477;-69
2024/04/22 07:42:04;;;;;;;8.80;2.80;;;5.50;99.90;;;;;;5341895;26;20474;-69
2024/04/22 07:44:31;;;;;;;10.93;2.73;;;5.60;99.90;;;;;;5352538;26;20485;-68
2024/04/22 07:47:01;;;;;;;10.30;3.20;;;5.60;99.90;;;;;;5346634;26;20810;-68
2024/04/22 07:49:28;;;;;;;8.50;2.73;;;5.60;99.90;;;;;;5351920;26;21090;-68
2024/04/22 07:52:00;;;;;;;8.73;2.87;;;5.60;99.90;;;;;;5351649;26;20529;-69
2024/04/22 07:54:29;;;;;;;8.57;2.60;;;5.40;99.90;;;;;;5341537;26;20512;-69
2024/04/22 07:56:59;;;;;;;8.30;2.63;;;5.50;99.90;;;;;;5333480;26;20582;-69
2024/04/22 07:59:27;;;;;;;8.70;3.03;;;5.70;99.90;;;;;;5344970;26;20817;-69
2024/04/22 08:01:57;;;;;;;29.20;5.70;;;5.70;99.90;;;;;;5342393;26;20481;-69
2024/04/22 08:04:26;;;;;;;10.47;3.10;;;5.90;99.90;;;;;;5336803;26;20996;-69
2024/04/22 08:07:02;;;;;;;8.20;2.23;;;6.00;99.90;;;;;;5338228;26;20521;-69
2024/04/22 08:09:30;;;;;;;9.53;3.10;;;6.20;99.90;;;;;;5336178;26;20559;-69
2024/04/22 08:12:01;;;;;;;8.70;2.80;;;6.40;99.90;;;;;;5336847;26;20513;-70
2024/04/22 08:14:28;;;;;;;7.30;2.43;;;6.60;99.90;;;;;;5337140;26;20487;-69
2024/04/22 08:16:57;;;;;;;30.93;6.73;;;6.70;99.90;;;;;;5337038;26;20463;-68
2024/04/22 08:19:25;;;;;;;8.77;3.23;;;6.70;99.90;;;;;;5335784;26;20552;-68
2024/04/22 08:21:54;;;;;;;8.43;2.37;;;6.70;99.30;;;;;;5337872;26;20478;-69
2024/04/22 08:24:26;;;;;;;8.47;2.40;;;6.90;99.50;;;;;;5338400;26;20460;-70
2024/04/22 08:26:56;;;;;;;9.43;3.00;;;7.20;99.90;;;;;;5339131;26;20479;-69
2024/04/22 08:29:23;;;;;;;9.50;2.57;;;7.60;99.40;;;;;;5338395;26;20469;-69
2024/04/22 08:31:54;;;;;;;34.80;7.50;;;7.90;95.00;;;;;;5338563;26;21075;-69
2024/04/22 08:34:21;;;;;;;12.47;2.30;;;8.20;95.80;;;;;;5340349;26;20568;-68
2024/04/22 08:36:51;;;;;;;9.63;3.47;;;8.30;93.30;;;;;;5341613;26;20586;-70
2024/04/22 08:39:18;;;;;;;16.40;2.50;;;8.40;91.90;;;;;;5340901;26;20474;-70
2024/04/22 08:41:50;;;;;;;8.77;2.57;;;8.60;92.30;;;;;;5342020;26;20485;-70
2024/04/22 08:44:17;;;;;;;8.00;2.33;;;8.50;90.10;;;;;;5341748;26;20524;-68
2024/04/22 08:46:47;;;;;;;8.50;2.60;;;8.00;86.80;;;;;;5341699;26;20466;-70
2024/04/22 08:49:14;;;;;;;9.90;2.30;;;7.90;86.00;;;;;;5340780;26;21378;-70
2024/04/22 08:51:45;;;;;;;9.00;2.93;;;8.10;88.90;;;;;;5341643;26;20510;-69
2024/04/22 08:54:12;;;;;;;9.13;2.60;;;8.30;86.20;;;;;;5341359;26;20534;-70
2024/04/22 08:56:45;;;;;;;26.83;4.90;;;8.60;86.20;;;;;;5341873;26;20815;-70
2024/04/22 08:59:15;;;;;;;7.43;2.20;;;8.70;85.50;;;;;;5340964;26;20530;-70
2024/04/22 09:02:06;;;;;;;7.50;2.70;;;8.70;84.70;;;;;;5341560;26;20473;-70
2024/04/22 09:04:33;;;;;;;8.97;2.67;;;8.50;86.80;;;;;;5341849;26;20504;-71
2024/04/22 09:07:07;;;;;;;16.50;4.80;;;8.50;82.20;;;;;;5341682;26;20475;-70
2024/04/22 09:09:34;;;;;;;8.83;2.57;;;8.50;84.30;;;;;;5340831;26;20537;-69
2024/04/22 09:12:24;;;;;;;7.50;2.23;;;8.50;89.60;;;;;;5341678;26;21177;-69
2024/04/22 09:15:00;;;;;;;8.10;2.63;;;8.60;85.40;;;;;;5341709;26;20533;-68
2024/04/22 09:17:31;;;;;;;12.30;3.03;;;8.50;81.90;;;;;;5341567;26;20463;-69
2024/04/22 09:19:59;;;;;;;7.40;2.60;;;8.70;81.40;;;;;;5340367;26;20483;-70
2024/04/22 09:22:29;;;;;;;8.70;4.67;;;9.10;78.90;;;;;;5341624;26;20467;-71
2024/04/22 09:24:56;;;;;;;8.23;2.83;;;9.20;82.50;;;;;;5341626;26;20467;-68
2024/04/22 09:27:29;;;;;;;8.53;2.40;;;9.60;72.40;;;;;;5341517;26;20585;-69
2024/04/22 09:30:03;;;;;;;7.30;2.43;;;9.20;75.20;;;;;;5340693;26;20532;-69
2024/04/22 09:32:34;;;;;;;8.00;2.70;;;9.40;78.30;;;;;;5341661;26;20490;-70
2024/04/22 09:35:12;;;;;;;9.07;2.77;;;9.80;76.90;;;;;;5341580;26;20519;-69
2024/04/22 09:37:46;;;;;;;7.90;2.40;;;10.20;67.90;;;;;;5341138;26;20532;-70
2024/04/22 09:40:17;;;;;;;10.47;3.10;;;9.60;70.80;;;;;;5340475;26;20482;-68
2024/04/22 09:42:48;;;;;;;8.67;2.90;;;9.20;72.50;;;;;;5341096;26;20471;-67
2024/04/22 09:45:17;;;;;;;8.20;2.70;;;8.80;71.30;;;;;;5339811;26;20872;-70
2024/04/22 09:47:48;;;;;;;10.50;2.10;;;8.70;70.80;;;;;;5340699;26;20470;-69
2024/04/22 09:50:16;;;;;;;7.30;2.37;;;8.50;69.50;;;;;;5339965;26;20480;-68
2024/04/22 09:52:50;;;;;;;7.97;3.20;;;8.80;71.70;;;;;;5340952;26;21145;-67
2024/04/22 09:55:20;;;;;;;6.87;1.83;;;9.60;74.20;;;;;;5341119;26;20475;-71
2024/04/22 09:57:47;;;;;;;7.20;2.50;;;10.40;69.00;;;;;;5340917;26;20496;-70
2024/04/22 10:00:22;;;;;;;6.77;2.03;;;11.30;65.90;;;;;;5340441;26;21009;-68
2024/04/22 10:02:50;;;;;;;7.70;2.57;;;11.30;59.40;;;;;;5340998;26;20481;-70
2024/04/22 10:05:24;;;;;;;6.73;2.13;;;11.00;64.40;;;;;;5337758;26;20469;-68
2024/04/22 10:07:52;;;;;;;9.07;2.87;;;11.60;61.50;;;;;;5341939;26;20485;-70
2024/04/22 10:10:22;;;;;;;8.03;2.27;;;12.30;64.70;;;;;;5354214;26;20567;-69
2024/04/22 10:12:50;;;;;;;7.13;2.10;;;12.40;57.10;;;;;;5357601;26;21115;-68
2024/04/22 10:15:22;;;;;;;7.67;2.10;;;12.20;58.00;;;;;;5357390;26;20823;-69
2024/04/22 10:17:50;;;;;;;8.70;2.07;;;11.90;57.10;;;;;;5356595;26;21205;-70
2024/04/22 10:20:21;;;;;;;6.90;1.80;;;12.00;57.80;;;;;;5359148;26;20471;-69
2024/04/22 10:22:49;;;;;;;8.87;2.30;;;12.20;57.80;;;;;;5357054;26;20467;-68
2024/04/22 10:25:20;;;;;;;7.10;2.00;;;11.80;56.70;;;;;;5357018;26;20549;-69
2024/04/22 10:27:48;;;;;;;7.40;2.23;;;11.40;57.00;;;;;;5356981;26;20474;-69
2024/04/22 10:30:17;;;;;;;8.77;2.23;;;11.50;57.00;;;;;;5359381;26;20487;-68
2024/04/22 10:32:47;;;;;;;6.57;1.87;;;12.10;55.30;;;;;;5351854;26;20462;-69
2024/04/22 10:35:18;;;;;;;7.47;2.27;;;12.20;58.00;;;;;;5357126;26;20509;-69
2024/04/22 10:37:45;;;;;;;7.30;2.10;;;11.30;55.30;;;;;;5353963;26;20516;-70
2024/04/22 10:40:14;;;;;;;9.30;2.33;;;10.50;58.90;;;;;;5358823;26;20553;-70
2024/04/22 10:42:42;;;;;;;7.87;2.30;;;10.50;58.80;;;;;;5356420;26;21106;-69
2024/04/22 10:45:11;;;;;;;8.57;2.60;;;11.10;59.20;;;;;;5345920;26;20485;-69
2024/04/22 10:47:39;;;;;;;7.77;2.00;;;11.50;56.10;;;;;;5350759;26;20509;-71
2024/04/22 10:50:18;;;;;;;16.93;3.07;;;11.10;56.90;;;;;;5335804;26;20527;-69
2024/04/22 10:52:47;;;;;;;7.60;2.30;;;10.60;59.00;;;;;;5338788;26;20914;-70
2024/04/22 10:55:17;;;;;;;16.47;3.30;;;10.50;55.70;;;;;;5345249;26;20512;-69
2024/04/22 10:57:45;;;;;;;7.37;1.90;;;10.20;58.20;;;;;;5350016;26;20518;-69
2024/04/22 11:00:15;;;;;;;7.30;2.20;;;10.40;58.60;;;;;;5353165;26;20530;-70
2024/04/22 11:02:42;;;;;;;9.40;2.50;;;10.70;59.40;;;;;;5353954;26;21070;-69
2024/04/22 11:05:13;;;;;;;7.20;1.90;;;10.60;55.80;;;;;;5354316;26;20983;-69
2024/04/22 11:07:43;;;;;;;9.60;2.23;;;10.60;58.80;;;;;;5353903;26;20701;-71
2024/04/22 11:10:14;;;;;;;7.77;2.83;;;10.80;58.60;;;;;;5353416;26;20667;-70
2024/04/22 11:12:44;;;;;;;7.00;2.10;;;11.10;60.30;;;;;;5350398;26;20551;-69
2024/04/22 11:15:14;;;;;;;6.93;1.87;;;11.10;56.00;;;;;;5354195;26;20477;-71
2024/04/22 11:17:41;;;;;;;7.00;2.00;;;11.70;58.50;;;;;;5353675;26;20519;-69
2024/04/22 11:20:13;;;;;;;7.40;1.90;;;11.60;52.70;;;;;;5353927;26;20476;-69
2024/04/22 11:22:45;;;;;;;7.03;2.30;;;11.60;55.70;;;;;;5352692;26;21159;-69
2024/04/22 11:25:13;;;;;;;9.90;2.50;;;11.70;55.40;;;;;;5354573;26;20580;-70
2024/04/22 11:27:43;;;;;;;9.13;2.00;;;11.50;56.50;;;;;;5354251;26;20477;-70
2024/04/22 11:30:10;;;;;;;7.27;2.00;;;11.50;55.10;;;;;;5355294;26;20526;-71
2024/04/22 11:32:40;;;;;;;8.27;1.90;;;10.70;56.40;;;;;;5354724;26;21040;-69
2024/04/22 11:35:08;;;;;;;7.90;1.77;;;9.80;57.00;;;;;;5356667;26;20512;-69
2024/04/22 11:37:38;;;;;;;6.63;1.70;;;9.60;57.70;;;;;;5356570;26;21078;-70
2024/04/22 11:40:09;;;;;;;6.90;1.60;;;9.80;56.80;;;;;;5348813;26;20564;-70
2024/04/22 11:42:38;;;;;;;9.07;2.30;;;10.70;57.10;;;;;;5353453;26;20539;-69
2024/04/22 11:45:06;;;;;;;7.83;1.67;;;10.70;54.60;;;;;;5352661;26;21465;-69
2024/04/22 11:47:36;;;;;;;7.60;1.90;;;10.90;55.00;;;;;;5337244;26;20478;-69
2024/04/22 11:50:05;;;;;;;7.37;1.83;;;10.80;56.20;;;;;;5338111;26;20569;-70
2024/04/22 11:52:35;;;;;;;7.43;1.70;;;10.30;56.50;;;;;;5338734;26;20494;-71
2024/04/22 11:55:02;;;;;;;6.90;1.87;;;9.50;56.60;;;;;;5339404;26;20828;-70
2024/04/22 11:57:34;;;;;;;9.10;2.33;;;9.00;58.30;;;;;;5334955;26;20473;-69
2024/04/22 12:00:01;;;;;;;10.40;1.57;;;9.00;59.40;;;;;;5334585;26;20480;-71
2024/04/22 12:02:31;;;;;;;9.47;1.90;;;9.00;58.70;;;;;;5343575;26;20519;-70
2024/04/22 12:05:04;;;;;;;7.90;1.90;;;8.90;58.10;;;;;;5348707;26;20532;-69
2024/04/22 12:07:36;;;;;;;7.33;1.70;;;8.80;57.90;;;;;;5359332;26;20523;-70
2024/04/22 12:10:04;;;;;;;7.63;1.67;;;9.00;56.30;;;;;;5345868;26;20481;-69
2024/04/22 12:12:36;;;;;;;6.70;1.50;;;8.90;55.20;;;;;;5351588;26;20509;-69
2024/04/22 12:15:04;;;;;;;7.33;1.90;;;8.90;56.90;;;;;;5348707;26;20912;-70
2024/04/22 12:17:35;;;;;;;7.27;1.60;;;9.00;55.30;;;;;;5354783;26;20464;-70
2024/04/22 12:20:02;;;;;;;6.93;1.90;;;9.10;56.70;;;;;;5344933;26;20526;-71
2024/04/22 12:22:32;;;;;;;6.80;2.13;;;9.40;57.10;;;;;;5341683;26;20533;-69
2024/04/22 12:24:59;;;;;;;9.57;2.60;;;9.40;59.60;;;;;;5347575;26;20469;-69
2024/04/22 12:27:28;;;;;;;7.80;2.40;;;10.00;59.90;;;;;;5349977;26;20517;-71
2024/04/22 12:29:58;;;;;;;7.27;2.10;;;10.70;58.20;;;;;;5348868;26;20527;-71
2024/04/22 12:32:30;;;;;;;7.30;2.30;;;11.20;58.50;;;;;;5342323;26;20482;-71
2024/04/22 12:35:02;;;;;;;7.17;2.13;;;11.60;58.60;;;;;;5337781;26;20496;-70
2024/04/22 12:37:32;;;;;;;11.83;2.43;;;10.70;56.80;;;;;;5337910;26;20529;-70
2024/04/22 12:39:59;;;;;;;10.63;2.47;;;10.60;59.10;;;;;;5352306;26;20487;-71
2024/04/22 12:42:31;;;;;;;9.30;2.10;;;11.10;57.20;;;;;;5339938;26;20483;-71
2024/04/22 12:45:03;;;;;;;7.37;1.93;;;11.00;57.70;;;;;;5339222;26;21094;-72
2024/04/22 12:53:06;;;;;;;9.37;1.87;;;10.90;55.40;;;;;;5351178;26;20462;-68
2024/04/22 12:55:36;;;;;;;9.27;2.03;;;10.70;54.50;;;;;;5345235;26;20474;-69
2024/04/22 12:58:06;;;;;;;6.90;2.10;;;10.60;55.60;;;;;;5347970;26;20515;-69
2024/04/22 13:00:40;;;;;;;6.50;1.93;;;10.20;53.90;;;;;;5344372;26;20556;-69
2024/04/22 13:03:09;;;;;;;6.60;1.90;;;10.80;57.10;;;;;;5335293;26;21040;-70
2024/04/22 13:05:37;;;;;;;6.63;1.60;;;11.10;56.50;;;;;;5357112;26;20472;-69
2024/04/22 13:08:06;;;;;;;6.90;1.93;;;12.20;53.50;;;;;;5356480;26;20822;-70
2024/04/22 13:10:36;;;;;;;6.93;2.07;;;12.40;50.50;;;;;;5336456;26;20530;-70
2024/04/22 13:13:06;;;;;;;6.90;2.23;;;12.20;52.40;;;;;;5337721;26;20520;-70